Time,TemperatureF,DewpointF,PressureIn,WindDirection,WindDirectionDegrees,WindSpeedMPH,WindSpeedGustMPH,Humidity,HourlyPrecipIn,Conditions,Clouds,dailyrainin,SoftwareType,DateUTC
2014-12-19 00:05:00,43.2,41.6,29.97,NNE,13,2.0,5.0,94,0.00,,,0.01,Wunderground v.1.15,2014-12-19 08:05:00,
2014-12-19 00:11:00,43.1,41.5,29.97,North,4,6.0,6.0,94,0.00,,,0.01,Wunderground v.1.15,2014-12-19 08:11:00,
2014-12-19 00:17:00,43.0,41.4,29.98,NNE,24,8.0,9.0,94,0.05,,,0.02,Wunderground v.1.15,2014-12-19 08:17:00,
2014-12-19 00:22:00,42.9,41.6,29.99,NNE,18,7.0,9.0,95,0.07,,,0.03,Wunderground v.1.15,2014-12-19 08:22:00,
2014-12-19 00:28:00,42.9,41.6,29.99,NW,321,5.0,9.0,95,0.12,,,0.04,Wunderground v.1.15,2014-12-19 08:28:00,
2014-12-19 00:34:00,42.9,41.6,30.00,NNW,331,5.0,7.0,95,0.11,,,0.05,Wunderground v.1.15,2014-12-19 08:34:00,
2014-12-19 00:40:00,42.8,41.7,30.00,North,4,6.0,6.0,96,0.40,,,0.09,Wunderground v.1.15,2014-12-19 08:40:00,
2014-12-19 00:45:00,42.7,41.6,30.00,NNE,14,3.0,6.0,96,0.26,,,0.12,Wunderground v.1.15,2014-12-19 08:45:00,
2014-12-19 00:51:00,42.6,41.5,30.00,North,10,0.0,4.0,96,0.35,,,0.15,Wunderground v.1.15,2014-12-19 08:51:00,
2014-12-19 00:57:00,42.5,41.4,30.00,SE,141,0.0,4.0,96,0.49,,,0.20,Wunderground v.1.15,2014-12-19 08:57:00,
2014-12-19 01:03:00,42.5,41.4,30.00,East,89,4.0,4.0,96,0.40,,,0.24,Wunderground v.1.15,2014-12-19 09:03:00,
2014-12-19 01:08:00,42.4,41.3,30.00,ESE,118,0.0,4.0,96,0.31,,,0.27,Wunderground v.1.15,2014-12-19 09:08:00,
2014-12-19 01:14:00,42.3,41.2,30.01,WNW,291,0.0,2.0,96,0.24,,,0.29,Wunderground v.1.15,2014-12-19 09:14:00,
2014-12-19 01:20:00,42.3,41.5,30.02,WNW,292,3.0,3.0,97,0.25,,,0.32,Wunderground v.1.15,2014-12-19 09:20:00,
2014-12-19 01:25:00,42.2,41.4,30.02,NW,306,0.0,3.0,97,0.17,,,0.33,Wunderground v.1.15,2014-12-19 09:25:00,
2014-12-19 01:31:00,42.3,41.5,30.00,WSW,252,2.0,2.0,97,0.31,,,0.36,Wunderground v.1.15,2014-12-19 09:31:00,
2014-12-19 01:37:00,42.4,41.3,29.98,East,94,6.0,8.0,96,0.26,,,0.39,Wunderground v.1.15,2014-12-19 09:37:00,
2014-12-19 01:43:00,42.2,41.1,29.98,ESE,118,3.0,6.0,96,0.19,,,0.41,Wunderground v.1.15,2014-12-19 09:43:00,
2014-12-19 01:48:00,42.2,41.1,29.98,East,95,0.0,6.0,96,0.12,,,0.42,Wunderground v.1.15,2014-12-19 09:48:00,
2014-12-19 01:54:00,42.1,41.0,29.98,ESE,122,0.0,2.0,96,0.05,,,0.42,Wunderground v.1.15,2014-12-19 09:54:00,
2014-12-19 02:00:00,42.1,41.0,29.98,NW,318,3.0,3.0,96,0.04,,,0.42,Wunderground v.1.15,2014-12-19 10:00:00,
2014-12-19 02:05:00,42.1,41.0,29.99,NW,318,2.0,4.0,96,0.00,,,0.42,Wunderground v.1.15,2014-12-19 10:05:00,
2014-12-19 02:10:00,41.9,40.8,29.98,North,8,2.0,2.0,96,0.00,,,0.42,Wunderground v.1.15,2014-12-19 10:10:00,
2014-12-19 02:15:00,41.7,40.6,29.98,NW,318,4.0,4.0,96,0.00,,,0.42,Wunderground v.1.15,2014-12-19 10:15:00,
2014-12-19 02:20:00,41.6,40.5,29.98,NW,321,4.0,5.0,96,0.00,,,0.43,Wunderground v.1.15,2014-12-19 10:20:00,
2014-12-19 02:25:00,41.8,41.0,29.99,NW,326,4.0,6.0,97,0.00,,,0.43,Wunderground v.1.15,2014-12-19 10:25:00,
2014-12-19 02:30:00,42.0,40.9,29.99,NNW,329,4.0,4.0,96,0.05,,,0.44,Wunderground v.1.15,2014-12-19 10:30:00,
2014-12-19 02:35:00,42.1,41.0,29.99,NNW,346,4.0,4.0,96,0.11,,,0.45,Wunderground v.1.15,2014-12-19 10:35:00,
2014-12-19 02:40:00,42.1,41.0,30.00,NNW,336,1.0,3.0,96,0.15,,,0.46,Wunderground v.1.15,2014-12-19 10:40:00,
2014-12-19 02:45:00,41.9,40.8,30.00,NNW,348,4.0,5.0,96,0.18,,,0.48,Wunderground v.1.15,2014-12-19 10:45:00,
2014-12-19 02:50:00,41.9,40.8,30.01,North,356,2.0,3.0,96,0.14,,,0.49,Wunderground v.1.15,2014-12-19 10:50:00,
2014-12-19 02:55:00,41.9,41.1,30.01,NNE,25,0.0,3.0,97,0.11,,,0.50,Wunderground v.1.15,2014-12-19 10:55:00,
2014-12-19 03:00:00,41.7,40.6,30.00,NE,43,0.0,1.0,96,0.15,,,0.51,Wunderground v.1.15,2014-12-19 11:00:00,
2014-12-19 03:05:00,41.5,40.4,29.99,ENE,70,0.0,1.0,96,0.18,,,0.53,Wunderground v.1.15,2014-12-19 11:05:00,
2014-12-19 03:10:00,41.3,40.5,29.99,NE,40,1.0,2.0,97,0.15,,,0.54,Wunderground v.1.15,2014-12-19 11:10:00,
2014-12-19 03:15:00,41.2,40.4,30.00,NNE,27,0.0,5.0,97,0.10,,,0.54,Wunderground v.1.15,2014-12-19 11:15:00,
2014-12-19 03:20:00,41.2,40.4,29.99,North,8,2.0,2.0,97,0.05,,,0.54,Wunderground v.1.15,2014-12-19 11:20:00,
2014-12-19 03:25:00,41.1,40.3,30.00,North,5,6.0,7.0,97,0.05,,,0.55,Wunderground v.1.15,2014-12-19 11:25:00,
2014-12-19 03:30:00,41.1,40.3,29.99,NNE,19,2.0,4.0,97,0.05,,,0.55,Wunderground v.1.15,2014-12-19 11:30:00,
2014-12-19 03:35:00,41.1,40.3,30.00,NNE,32,3.0,4.0,97,0.04,,,0.55,Wunderground v.1.15,2014-12-19 11:35:00,
2014-12-19 03:40:00,41.1,40.3,30.00,NNE,18,2.0,3.0,97,0.04,,,0.56,Wunderground v.1.15,2014-12-19 11:40:00,
2014-12-19 03:45:00,41.0,40.2,30.01,North,349,1.0,4.0,97,0.04,,,0.56,Wunderground v.1.15,2014-12-19 11:45:00,
2014-12-19 03:50:00,41.0,40.2,30.01,NNE,18,0.0,1.0,97,0.05,,,0.57,Wunderground v.1.15,2014-12-19 11:50:00,
2014-12-19 03:55:00,40.9,40.1,30.01,NNE,18,0.0,1.0,97,0.09,,,0.58,Wunderground v.1.15,2014-12-19 11:55:00,
2014-12-19 04:00:00,40.9,40.1,30.01,East,93,0.0,1.0,97,0.11,,,0.59,Wunderground v.1.15,2014-12-19 12:00:00,
2014-12-19 04:05:00,40.8,40.0,30.01,East,89,0.0,1.0,97,0.11,,,0.59,Wunderground v.1.15,2014-12-19 12:05:00,
2014-12-19 04:10:00,40.9,40.4,30.01,East,82,1.0,4.0,98,0.11,,,0.60,Wunderground v.1.15,2014-12-19 12:10:00,
2014-12-19 04:15:00,40.9,40.4,30.01,East,90,0.0,4.0,98,0.06,,,0.60,Wunderground v.1.15,2014-12-19 12:15:00,
2014-12-19 04:20:00,40.8,40.0,30.01,East,86,0.0,1.0,97,0.04,,,0.60,Wunderground v.1.15,2014-12-19 12:20:00,
2014-12-19 04:25:00,40.7,39.9,30.01,East,86,0.0,1.0,97,0.00,,,0.60,Wunderground v.1.15,2014-12-19 12:25:00,
2014-12-19 04:30:00,40.6,39.8,30.01,East,86,0.0,0.0,97,0.00,,,0.60,Wunderground v.1.15,2014-12-19 12:30:00,
2014-12-19 04:35:00,40.5,40.0,30.01,NNE,24,2.0,2.0,98,0.00,,,0.60,Wunderground v.1.15,2014-12-19 12:35:00,
2014-12-19 04:40:00,40.6,40.1,30.01,NNW,337,1.0,2.0,98,0.00,,,0.60,Wunderground v.1.15,2014-12-19 12:40:00,
2014-12-19 04:45:00,40.4,39.9,30.00,North,350,1.0,2.0,98,0.00,,,0.60,Wunderground v.1.15,2014-12-19 12:45:00,
2014-12-19 04:50:00,40.3,39.8,29.99,NNE,22,1.0,2.0,98,0.00,,,0.60,Wunderground v.1.15,2014-12-19 12:50:00,
2014-12-19 04:55:00,40.4,39.9,30.00,NNE,16,1.0,3.0,98,0.00,,,0.60,Wunderground v.1.15,2014-12-19 12:55:00,
2014-12-19 05:00:00,40.3,39.8,29.99,North,356,1.0,2.0,98,0.00,,,0.60,Wunderground v.1.15,2014-12-19 13:00:00,
2014-12-19 05:05:00,40.3,39.8,29.99,North,9,3.0,3.0,98,0.00,,,0.60,Wunderground v.1.15,2014-12-19 13:05:00,
2014-12-19 05:10:00,40.1,39.6,29.99,NNW,335,2.0,2.0,98,0.00,,,0.60,Wunderground v.1.15,2014-12-19 13:10:00,
2014-12-19 05:15:00,40.0,39.5,30.00,North,4,2.0,4.0,98,0.00,,,0.60,Wunderground v.1.15,2014-12-19 13:15:00,
2014-12-19 05:20:00,40.0,39.5,30.00,NNW,333,2.0,3.0,98,0.00,,,0.60,Wunderground v.1.15,2014-12-19 13:20:00,
2014-12-19 05:25:00,40.0,39.5,29.99,NW,323,0.0,3.0,98,0.00,,,0.60,Wunderground v.1.15,2014-12-19 13:25:00,
2014-12-19 05:30:00,39.9,39.4,29.99,NNE,19,1.0,1.0,98,0.00,,,0.60,Wunderground v.1.15,2014-12-19 13:30:00,
2014-12-19 05:35:00,39.8,39.3,29.99,NNE,18,1.0,2.0,98,0.00,,,0.60,Wunderground v.1.15,2014-12-19 13:35:00,
2014-12-19 05:40:00,39.7,39.2,29.99,NNE,14,1.0,2.0,98,0.00,,,0.60,Wunderground v.1.15,2014-12-19 13:40:00,
2014-12-19 05:45:00,39.7,39.2,30.00,North,353,5.0,6.0,98,0.00,,,0.60,Wunderground v.1.15,2014-12-19 13:45:00,
2014-12-19 05:50:00,39.7,39.2,30.00,North,356,3.0,4.0,98,0.00,,,0.60,Wunderground v.1.15,2014-12-19 13:50:00,
2014-12-19 05:55:00,39.6,39.1,30.00,West,276,0.0,4.0,98,0.00,,,0.60,Wunderground v.1.15,2014-12-19 13:55:00,
2014-12-19 06:00:00,39.6,39.1,30.00,ESE,117,0.0,1.0,98,0.00,,,0.60,Wunderground v.1.15,2014-12-19 14:00:00,
2014-12-19 06:05:00,39.5,39.0,30.00,SE,129,0.0,1.0,98,0.00,,,0.60,Wunderground v.1.15,2014-12-19 14:05:00,
2014-12-19 06:10:00,39.4,38.9,30.00,SE,134,0.0,1.0,98,0.00,,,0.60,Wunderground v.1.15,2014-12-19 14:10:00,
2014-12-19 06:15:00,39.2,38.7,30.00,SE,134,0.0,1.0,98,0.00,,,0.60,Wunderground v.1.15,2014-12-19 14:15:00,
2014-12-19 06:20:00,39.2,38.7,30.00,NNW,335,0.0,0.0,98,0.00,,,0.60,Wunderground v.1.15,2014-12-19 14:20:00,
2014-12-19 06:25:00,39.0,38.5,30.00,ESE,111,0.0,0.0,98,0.00,,,0.60,Wunderground v.1.15,2014-12-19 14:25:00,
2014-12-19 06:30:00,38.9,38.4,30.01,ESE,111,0.0,0.0,98,0.00,,,0.60,Wunderground v.1.15,2014-12-19 14:30:00,
2014-12-19 06:35:00,38.8,38.3,30.01,North,10,1.0,4.0,98,0.00,,,0.60,Wunderground v.1.15,2014-12-19 14:35:00,
2014-12-19 06:40:00,38.8,38.3,30.01,East,86,1.0,2.0,98,0.00,,,0.60,Wunderground v.1.15,2014-12-19 14:40:00,
2014-12-19 06:45:00,38.7,38.2,30.02,East,99,0.0,2.0,98,0.00,,,0.60,Wunderground v.1.15,2014-12-19 14:45:00,
2014-12-19 06:50:00,38.8,38.5,30.01,SSW,209,3.0,3.0,99,0.00,,,0.60,Wunderground v.1.15,2014-12-19 14:50:00,
2014-12-19 06:55:00,38.9,38.6,30.01,WNW,291,3.0,6.0,99,0.00,,,0.60,Wunderground v.1.15,2014-12-19 14:55:00,
2014-12-19 07:00:00,38.9,38.6,30.02,ENE,65,2.0,3.0,99,0.00,,,0.60,Wunderground v.1.15,2014-12-19 15:00:00,
2014-12-19 07:05:00,39.0,38.7,30.01,North,356,3.0,4.0,99,0.00,,,0.60,Wunderground v.1.15,2014-12-19 15:05:00,
2014-12-19 07:10:00,39.1,38.8,30.02,NNW,333,3.0,4.0,99,0.00,,,0.60,Wunderground v.1.15,2014-12-19 15:10:00,
2014-12-19 07:15:00,39.1,38.8,30.02,NE,34,1.0,5.0,99,0.00,,,0.60,Wunderground v.1.15,2014-12-19 15:15:00,
2014-12-19 07:20:00,39.0,38.7,30.02,ENE,58,0.0,2.0,99,0.00,,,0.60,Wunderground v.1.15,2014-12-19 15:20:00,
2014-12-19 07:25:00,38.9,38.4,30.03,ESE,107,1.0,3.0,98,0.00,,,0.60,Wunderground v.1.15,2014-12-19 15:25:00,
2014-12-19 07:30:00,38.8,38.5,30.03,ESE,108,0.0,1.0,99,0.00,,,0.60,Wunderground v.1.15,2014-12-19 15:30:00,
2014-12-19 07:35:00,38.9,38.6,30.02,ENE,70,0.0,1.0,99,0.00,,,0.60,Wunderground v.1.15,2014-12-19 15:35:00,
2014-12-19 07:40:00,39.0,38.7,30.03,NNE,29,2.0,2.0,99,0.00,,,0.60,Wunderground v.1.15,2014-12-19 15:40:00,
2014-12-19 07:45:00,39.1,38.8,30.03,NNE,12,3.0,3.0,99,0.00,,,0.60,Wunderground v.1.15,2014-12-19 15:45:00,
2014-12-19 07:50:00,39.2,38.9,30.03,NNE,31,2.0,3.0,99,0.00,,,0.60,Wunderground v.1.15,2014-12-19 15:50:00,
2014-12-19 07:55:00,39.3,39.0,30.03,NNE,27,3.0,4.0,99,0.00,,,0.60,Wunderground v.1.15,2014-12-19 15:55:00,
2014-12-19 08:00:00,39.4,39.1,30.03,NE,36,0.0,2.0,99,0.00,,,0.60,Wunderground v.1.15,2014-12-19 16:00:00,
2014-12-19 08:05:00,39.5,39.2,30.03,NE,44,0.0,2.0,99,0.00,,,0.60,Wunderground v.1.15,2014-12-19 16:05:00,
2014-12-19 08:10:00,39.5,39.2,30.03,ENE,70,0.0,0.0,99,0.00,,,0.60,Wunderground v.1.15,2014-12-19 16:10:00,
2014-12-19 08:15:00,39.4,39.1,30.03,ENE,70,0.0,0.0,99,0.00,,,0.60,Wunderground v.1.15,2014-12-19 16:15:00,
2014-12-19 08:21:00,39.4,39.1,30.03,NE,40,0.0,0.0,99,0.00,,,0.60,Wunderground v.1.15,2014-12-19 16:21:00,
2014-12-19 08:26:00,39.4,39.1,30.03,NE,40,0.0,0.0,99,0.00,,,0.60,Wunderground v.1.15,2014-12-19 16:26:00,
2014-12-19 08:31:00,39.3,39.0,30.03,NE,40,0.0,0.0,99,0.00,,,0.60,Wunderground v.1.15,2014-12-19 16:31:00,
2014-12-19 08:36:00,39.5,39.2,30.03,NE,40,0.0,0.0,99,0.00,,,0.60,Wunderground v.1.15,2014-12-19 16:36:00,
2014-12-19 08:41:00,39.5,39.2,30.03,NE,40,0.0,0.0,99,0.00,,,0.60,Wunderground v.1.15,2014-12-19 16:41:00,
2014-12-19 08:46:00,39.6,39.3,30.03,NW,326,2.0,2.0,99,0.00,,,0.60,Wunderground v.1.15,2014-12-19 16:46:00,
2014-12-19 08:51:00,39.6,39.3,30.04,NW,326,1.0,2.0,99,0.00,,,0.60,Wunderground v.1.15,2014-12-19 16:51:00,
2014-12-19 08:56:00,39.6,39.3,30.04,NNW,345,1.0,2.0,99,0.00,,,0.60,Wunderground v.1.15,2014-12-19 16:56:00,
2014-12-19 09:01:00,39.5,39.2,30.04,NNW,331,1.0,2.0,99,0.00,,,0.60,Wunderground v.1.15,2014-12-19 17:01:00,
2014-12-19 09:06:00,39.6,39.3,30.03,NNW,346,0.0,2.0,99,0.00,,,0.60,Wunderground v.1.15,2014-12-19 17:06:00,
2014-12-19 09:11:00,39.6,39.3,30.04,NNW,345,0.0,1.0,99,0.00,,,0.60,Wunderground v.1.15,2014-12-19 17:11:00,
2014-12-19 09:16:00,39.6,39.3,30.04,NNW,346,0.0,1.0,99,0.00,,,0.60,Wunderground v.1.15,2014-12-19 17:16:00,
2014-12-19 09:21:00,39.7,39.4,30.05,NNW,345,0.0,0.0,99,0.00,,,0.60,Wunderground v.1.15,2014-12-19 17:21:00,
2014-12-19 09:26:00,39.7,39.4,30.05,NNW,346,0.0,1.0,99,0.00,,,0.60,Wunderground v.1.15,2014-12-19 17:26:00,
2014-12-19 09:31:00,39.8,39.5,30.05,NNW,342,2.0,3.0,99,0.00,,,0.60,Wunderground v.1.15,2014-12-19 17:31:00,
2014-12-19 09:36:00,39.9,39.6,30.05,North,355,2.0,3.0,99,0.00,,,0.60,Wunderground v.1.15,2014-12-19 17:36:00,
2014-12-19 09:41:00,39.8,39.5,30.05,North,11,3.0,5.0,99,0.00,,,0.60,Wunderground v.1.15,2014-12-19 17:41:00,
2014-12-19 09:46:00,39.7,39.2,30.06,NNE,18,3.0,6.0,98,0.00,,,0.60,Wunderground v.1.15,2014-12-19 17:46:00,
2014-12-19 09:51:00,39.6,39.3,30.06,North,356,1.0,3.0,99,0.00,,,0.60,Wunderground v.1.15,2014-12-19 17:51:00,
2014-12-19 09:56:00,39.7,39.4,30.06,North,356,0.0,3.0,99,0.00,,,0.60,Wunderground v.1.15,2014-12-19 17:56:00,
2014-12-19 10:01:00,40.0,39.7,30.06,North,5,0.0,0.0,99,0.00,,,0.60,Wunderground v.1.15,2014-12-19 18:01:00,
2014-12-19 10:06:00,40.6,40.3,30.06,ESE,105,0.0,0.0,99,0.00,,,0.60,Wunderground v.1.15,2014-12-19 18:06:00,
2014-12-19 10:11:00,41.1,40.8,30.06,ESE,105,0.0,0.0,99,0.00,,,0.60,Wunderground v.1.15,2014-12-19 18:11:00,
2014-12-19 10:16:00,41.4,41.1,30.06,NE,34,2.0,3.0,99,0.00,,,0.60,Wunderground v.1.15,2014-12-19 18:16:00,
2014-12-19 10:21:00,41.5,41.2,30.06,NNE,20,1.0,4.0,99,0.00,,,0.60,Wunderground v.1.15,2014-12-19 18:21:00,
2014-12-19 10:26:00,41.7,41.4,30.06,NNE,12,2.0,4.0,99,0.00,,,0.60,Wunderground v.1.15,2014-12-19 18:26:00,
2014-12-19 10:31:00,42.0,41.7,30.06,North,358,2.0,3.0,99,0.00,,,0.60,Wunderground v.1.15,2014-12-19 18:31:00,
2014-12-19 10:36:00,42.5,42.2,30.06,NE,45,0.0,3.0,99,0.00,,,0.60,Wunderground v.1.15,2014-12-19 18:36:00,
2014-12-19 10:41:00,42.5,42.0,30.06,NNW,329,2.0,4.0,98,0.00,,,0.60,Wunderground v.1.15,2014-12-19 18:41:00,
2014-12-19 10:46:00,42.7,42.2,30.06,NW,323,2.0,4.0,98,0.00,,,0.60,Wunderground v.1.15,2014-12-19 18:46:00,
2014-12-19 10:51:00,42.9,42.1,30.06,NNW,347,0.0,2.0,97,0.00,,,0.60,Wunderground v.1.15,2014-12-19 18:51:00,
2014-12-19 10:56:00,43.1,42.3,30.06,WNW,300,0.0,2.0,97,0.00,,,0.60,Wunderground v.1.15,2014-12-19 18:56:00,
2014-12-19 11:01:00,43.3,42.5,30.06,NW,315,0.0,1.0,97,0.00,,,0.60,Wunderground v.1.15,2014-12-19 19:01:00,
2014-12-19 11:06:00,43.5,42.4,30.06,North,352,0.0,1.0,96,0.00,,,0.60,Wunderground v.1.15,2014-12-19 19:06:00,
2014-12-19 11:11:00,43.8,42.7,30.06,ENE,65,0.0,1.0,96,0.00,,,0.60,Wunderground v.1.15,2014-12-19 19:11:00,
2014-12-19 11:16:00,44.1,43.0,30.06,ESE,110,0.0,1.0,96,0.00,,,0.60,Wunderground v.1.15,2014-12-19 19:16:00,
2014-12-19 11:21:00,44.3,43.0,30.06,East,94,4.0,4.0,95,0.00,,,0.60,Wunderground v.1.15,2014-12-19 19:21:00,
2014-12-19 11:26:00,44.1,42.8,30.06,ESE,120,0.0,4.0,95,0.00,,,0.60,Wunderground v.1.15,2014-12-19 19:26:00,
2014-12-19 11:31:00,44.2,42.9,30.06,ESE,115,2.0,3.0,95,0.00,,,0.60,Wunderground v.1.15,2014-12-19 19:31:00,
2014-12-19 11:36:00,44.3,43.0,30.06,ESE,120,1.0,4.0,95,0.00,,,0.60,Wunderground v.1.15,2014-12-19 19:36:00,
2014-12-19 11:41:00,44.4,43.1,30.06,SSE,149,0.0,1.0,95,0.00,,,0.60,Wunderground v.1.15,2014-12-19 19:41:00,
2014-12-19 11:46:00,44.8,43.5,30.06,SSE,148,0.0,1.0,95,0.00,,,0.60,Wunderground v.1.15,2014-12-19 19:46:00,
2014-12-19 11:51:00,45.3,44.0,30.06,East,96,1.0,2.0,95,0.00,,,0.60,Wunderground v.1.15,2014-12-19 19:51:00,
2014-12-19 11:56:00,45.7,44.1,30.06,East,82,0.0,2.0,94,0.00,,,0.60,Wunderground v.1.15,2014-12-19 19:56:00,
2014-12-19 12:01:00,45.8,43.6,30.06,East,92,0.0,0.0,92,0.00,,,0.60,Wunderground v.1.15,2014-12-19 20:01:00,
2014-12-19 12:06:00,45.9,43.4,30.06,NW,305,0.0,0.0,91,0.00,,,0.60,Wunderground v.1.15,2014-12-19 20:06:00,
2014-12-19 12:11:00,46.1,43.6,30.06,NW,309,0.0,0.0,91,0.00,,,0.60,Wunderground v.1.15,2014-12-19 20:11:00,
2014-12-19 12:16:00,46.6,44.1,30.06,SSW,201,0.0,0.0,91,0.00,,,0.60,Wunderground v.1.15,2014-12-19 20:16:00,
2014-12-19 12:21:00,46.9,43.8,30.06,ESE,121,3.0,3.0,89,0.00,,,0.60,Wunderground v.1.15,2014-12-19 20:21:00,
2014-12-19 12:26:00,46.8,43.4,30.06,SE,129,0.0,3.0,88,0.00,,,0.60,Wunderground v.1.15,2014-12-19 20:26:00,
2014-12-19 12:31:00,47.2,43.5,30.05,ESE,105,2.0,2.0,87,0.00,,,0.60,Wunderground v.1.15,2014-12-19 20:31:00,
2014-12-19 12:36:00,47.3,43.6,30.05,SSE,155,2.0,4.0,87,0.00,,,0.60,Wunderground v.1.15,2014-12-19 20:36:00,
2014-12-19 12:41:00,47.7,43.7,30.05,SSE,162,1.0,3.0,86,0.00,,,0.60,Wunderground v.1.15,2014-12-19 20:41:00,
2014-12-19 12:46:00,48.2,43.9,30.06,SSE,158,2.0,3.0,85,0.00,,,0.60,Wunderground v.1.15,2014-12-19 20:46:00,
2014-12-19 12:51:00,48.5,43.3,30.05,SE,143,0.0,3.0,82,0.00,,,0.60,Wunderground v.1.15,2014-12-19 20:51:00,
2014-12-19 12:56:00,48.7,43.8,30.05,SE,136,0.0,3.0,83,0.00,,,0.60,Wunderground v.1.15,2014-12-19 20:56:00,
2014-12-19 13:01:00,48.9,43.3,30.05,South,173,5.0,5.0,81,0.00,,,0.60,Wunderground v.1.15,2014-12-19 21:01:00,
2014-12-19 13:06:00,49.1,43.2,30.06,SW,224,7.0,10.0,80,0.00,,,0.60,Wunderground v.1.15,2014-12-19 21:06:00,
2014-12-19 13:11:00,49.2,43.6,30.06,West,269,6.0,8.0,81,0.00,,,0.60,Wunderground v.1.15,2014-12-19 21:11:00,
2014-12-19 13:16:00,49.4,43.8,30.05,West,259,6.0,8.0,81,0.00,,,0.60,Wunderground v.1.15,2014-12-19 21:16:00,
2014-12-19 13:21:00,49.5,43.9,30.05,WNW,293,5.0,7.0,81,0.00,,,0.60,Wunderground v.1.15,2014-12-19 21:21:00,
2014-12-19 13:26:00,49.5,43.3,30.05,West,276,4.0,8.0,79,0.00,,,0.60,Wunderground v.1.15,2014-12-19 21:26:00,
2014-12-19 13:31:00,49.2,43.0,30.05,WSW,240,0.0,4.0,79,0.00,,,0.60,Wunderground v.1.15,2014-12-19 21:31:00,
2014-12-19 13:36:00,49.3,44.0,30.05,SSE,155,3.0,4.0,82,0.00,,,0.60,Wunderground v.1.15,2014-12-19 21:36:00,
2014-12-19 13:41:00,49.3,44.4,30.05,SW,218,2.0,3.0,83,0.00,,,0.60,Wunderground v.1.15,2014-12-19 21:41:00,
2014-12-19 13:46:00,49.1,43.8,30.05,WSW,257,2.0,4.0,82,0.00,,,0.60,Wunderground v.1.15,2014-12-19 21:46:00,
2014-12-19 13:51:00,49.2,44.6,30.04,WSW,257,2.0,4.0,84,0.00,,,0.60,Wunderground v.1.15,2014-12-19 21:51:00,